createdAt,value
2019-02-24T00:00:47.213Z,36.30
2019-02-24T00:03:16.750Z,29.43
2019-02-24T00:05:46.270Z,28.87
2019-02-24T00:08:16.207Z,28.10
2019-02-24T00:10:45.727Z,33.50
2019-02-24T00:13:15.403Z,30.40
2019-02-24T00:15:44.978Z,18.80
2019-02-24T00:18:14.535Z,27.63
2019-02-24T00:20:44.199Z,26.73
2019-02-24T00:23:13.644Z,27.10
2019-02-24T00:25:43.335Z,27.80
2019-02-24T00:28:12.959Z,30.67
2019-02-24T00:30:42.458Z,40.00
2019-02-24T00:33:12.121Z,33.43
2019-02-24T00:35:41.617Z,31.40
2019-02-24T00:38:11.257Z,25.00
2019-02-24T00:40:40.863Z,22.20
2019-02-24T00:43:10.323Z,21.73
2019-02-24T00:45:39.891Z,21.43
2019-02-24T00:48:09.418Z,27.77
2019-02-24T00:50:38.994Z,31.70
2019-02-24T00:53:08.615Z,26.60
2019-02-24T00:55:38.303Z,38.00
2019-02-24T00:58:15.895Z,31.33
2019-02-24T01:00:39.543Z,31.30
2019-02-24T01:03:09.354Z,51.03
2019-02-24T01:05:38.907Z,32.70
2019-02-24T01:08:10.852Z,37.70
2019-02-24T01:10:43.325Z,27.70
2019-02-24T01:13:12.775Z,23.47
2019-02-24T01:15:42.367Z,18.47
2019-02-24T01:18:11.859Z,28.53
2019-02-24T01:20:41.467Z,31.13
2019-02-24T01:23:11.161Z,26.00
2019-02-24T01:25:40.779Z,21.23
2019-02-24T01:28:10.423Z,23.20
2019-02-24T01:30:39.907Z,43.27
2019-02-24T01:33:09.388Z,34.53
2019-02-24T01:35:39.359Z,33.77
2019-02-24T01:38:09.247Z,33.83
2019-02-24T01:40:38.739Z,35.87
2019-02-24T01:43:08.251Z,49.30
2019-02-24T01:45:40.243Z,30.07
2019-02-24T01:48:12.381Z,33.00
2019-02-24T01:50:42.095Z,32.87
2019-02-24T01:53:11.538Z,30.07
2019-02-24T01:55:41.251Z,33.60
2019-02-24T01:58:10.942Z,30.80
2019-02-24T02:00:40.516Z,34.47
2019-02-24T02:03:10.117Z,32.43
2019-02-24T02:05:39.505Z,37.20
2019-02-24T02:08:09.367Z,29.87
2019-02-24T02:10:39.595Z,28.47
2019-02-24T02:13:09.121Z,35.70
2019-02-24T02:15:38.544Z,24.67
2019-02-24T02:18:08.197Z,30.07
2019-02-24T02:20:37.743Z,32.23
2019-02-24T02:23:07.276Z,27.53
2019-02-24T02:25:36.963Z,44.00
2019-02-24T02:28:06.601Z,27.73
2019-02-24T02:30:36.243Z,33.87
2019-02-24T02:33:05.849Z,44.33
2019-02-24T02:35:35.377Z,33.60
2019-02-24T02:38:05.120Z,39.13
2019-02-24T02:40:35.199Z,30.33
2019-02-24T02:43:04.740Z,37.93
2019-02-24T02:45:34.319Z,34.73
2019-02-24T02:48:04.161Z,33.83
2019-02-24T02:50:33.601Z,42.43
2019-02-24T02:53:03.062Z,24.23
2019-02-24T02:55:32.513Z,33.07
2019-02-24T02:58:01.984Z,31.23
2019-02-24T03:00:33.058Z,31.03
2019-02-24T03:03:02.658Z,25.27
2019-02-24T03:05:32.136Z,29.67
2019-02-24T03:08:13.090Z,35.93
2019-02-24T03:10:42.686Z,21.17
2019-02-24T03:13:12.283Z,27.97
2019-02-24T03:15:41.783Z,34.33
2019-02-24T03:18:11.267Z,33.93
2019-02-24T03:20:40.823Z,37.10
2019-02-24T03:23:10.388Z,27.67
2019-02-24T03:25:39.855Z,41.43
2019-02-24T03:28:09.318Z,29.90
2019-02-24T03:30:38.922Z,32.50
2019-02-24T03:33:08.613Z,27.27
2019-02-24T03:35:38.180Z,38.53
2019-02-24T03:38:08.058Z,33.60
2019-02-24T03:40:37.520Z,27.27
2019-02-24T03:43:07.050Z,39.17
2019-02-24T03:45:36.987Z,37.30
2019-02-24T03:48:06.675Z,40.97
2019-02-24T03:50:36.201Z,32.23
2019-02-24T03:53:05.621Z,37.83
2019-02-24T03:55:35.301Z,35.00
2019-02-24T03:58:04.856Z,33.97
2019-02-24T04:00:34.433Z,34.00
2019-02-24T04:03:03.990Z,37.67
2019-02-24T04:05:33.442Z,25.37
2019-02-24T04:08:02.941Z,33.50
2019-02-24T04:10:32.445Z,29.27
2019-02-24T04:13:02.012Z,39.17
2019-02-24T04:15:31.568Z,27.80
2019-02-24T04:18:00.987Z,30.10
2019-02-24T04:20:30.412Z,29.47
2019-02-24T04:22:59.804Z,50.13
2019-02-24T04:25:29.329Z,27.97
2019-02-24T04:27:58.788Z,32.07
2019-02-24T04:30:28.275Z,44.40
2019-02-24T04:32:57.856Z,27.37
2019-02-24T04:35:27.455Z,32.53
2019-02-24T04:37:56.940Z,44.17
2019-02-24T04:40:26.409Z,29.20
2019-02-24T04:42:56.078Z,25.97
2019-02-24T04:45:26.065Z,29.53
2019-02-24T04:47:55.621Z,33.23
2019-02-24T04:50:25.080Z,26.13
2019-02-24T04:52:54.846Z,21.57
2019-02-24T04:55:24.253Z,31.67
2019-02-24T04:57:53.855Z,21.93
2019-02-24T05:00:23.343Z,38.27
2019-02-24T05:02:52.873Z,31.17
2019-02-24T05:05:22.388Z,38.67
2019-02-24T05:07:51.862Z,37.30
2019-02-24T05:10:22.185Z,34.37
2019-02-24T05:12:51.658Z,33.40
2019-02-24T05:15:21.059Z,39.20
2019-02-24T05:17:50.606Z,34.83
2019-02-24T05:20:20.670Z,24.30
2019-02-24T05:22:50.223Z,38.97
2019-02-24T05:25:19.765Z,30.10
2019-02-24T05:27:49.451Z,28.13
2019-02-24T05:30:18.990Z,28.03
2019-02-24T05:32:48.398Z,39.53
2019-02-24T05:35:17.826Z,38.30
2019-02-24T05:37:47.459Z,35.50
2019-02-24T05:40:17.092Z,25.73
2019-02-24T05:42:46.617Z,28.97
2019-02-24T05:45:16.653Z,33.00
2019-02-24T05:47:46.226Z,30.30
2019-02-24T05:50:16.015Z,22.50
2019-02-24T05:52:45.924Z,30.03
2019-02-24T05:55:15.514Z,33.93
2019-02-24T05:57:44.953Z,23.20
2019-02-24T06:00:14.586Z,34.30
2019-02-24T06:02:44.134Z,32.10
2019-02-24T06:05:13.794Z,24.10
2019-02-24T06:07:43.342Z,34.63
2019-02-24T06:10:12.860Z,29.43
2019-02-24T06:12:42.469Z,34.60
2019-02-24T06:15:12.202Z,36.47
2019-02-24T06:17:41.732Z,31.30
2019-02-24T06:20:11.782Z,25.17
2019-02-24T06:22:41.310Z,25.57
2019-02-24T06:25:10.771Z,24.30
2019-02-24T06:27:40.445Z,31.43
2019-02-24T06:30:10.133Z,24.17
2019-02-24T06:32:39.596Z,24.80
2019-02-24T06:35:09.524Z,25.50
2019-02-24T06:37:38.938Z,30.73
2019-02-24T06:40:08.699Z,28.20
2019-02-24T06:42:38.159Z,45.20
2019-02-24T06:45:07.847Z,29.67
2019-02-24T06:47:37.505Z,25.47
2019-02-24T06:50:07.645Z,26.73
2019-02-24T06:52:37.304Z,32.60
2019-02-24T06:55:07.755Z,30.50
2019-02-24T06:57:37.149Z,30.43
2019-02-24T07:00:13.827Z,23.77
2019-02-24T07:02:38.275Z,24.70
2019-02-24T07:05:08.244Z,25.97
2019-02-24T07:07:37.665Z,36.20
2019-02-24T07:10:07.710Z,26.57
2019-02-24T07:12:37.167Z,38.53
2019-02-24T07:15:06.886Z,26.93
2019-02-24T07:17:36.479Z,29.13
2019-02-24T07:20:06.389Z,32.13
2019-02-24T07:22:35.965Z,42.93
2019-02-24T07:25:05.979Z,35.47
2019-02-24T07:27:35.460Z,22.77
2019-02-24T07:30:05.093Z,25.97
2019-02-24T07:32:34.827Z,42.77
2019-02-24T07:35:04.435Z,26.40
2019-02-24T07:37:33.918Z,27.90
2019-02-24T07:40:03.374Z,41.37
2019-02-24T07:42:33.756Z,29.77
2019-02-24T07:45:03.386Z,33.17
2019-02-24T07:47:32.985Z,41.00
2019-02-24T07:50:02.495Z,31.53
2019-02-24T07:52:32.101Z,22.97
2019-02-24T07:55:01.924Z,35.73
2019-02-24T07:57:31.469Z,49.53
2019-02-24T08:00:00.986Z,26.90
2019-02-24T08:02:30.472Z,31.23
2019-02-24T08:05:00.095Z,39.83
2019-02-24T08:07:29.689Z,31.20
2019-02-24T08:09:59.163Z,45.07
2019-02-24T08:12:28.615Z,27.43
2019-02-24T08:14:58.125Z,28.10
2019-02-24T08:17:27.703Z,39.70
2019-02-24T08:19:57.711Z,36.33
2019-02-24T08:22:27.172Z,36.27
2019-02-24T08:24:57.043Z,37.77
2019-02-24T08:27:26.572Z,38.00
2019-02-24T08:29:56.430Z,34.60
2019-02-24T08:32:26.385Z,48.30
2019-02-24T08:34:55.984Z,40.13
2019-02-24T08:37:25.523Z,32.53
2019-02-24T08:39:55.134Z,37.97
2019-02-24T08:42:24.703Z,22.70
2019-02-24T08:44:54.284Z,22.30
2019-02-24T08:47:23.879Z,29.37
2019-02-24T08:49:53.384Z,30.63
2019-02-24T08:52:22.907Z,29.40
2019-02-24T08:54:52.551Z,25.00
2019-02-24T08:57:22.111Z,36.70
2019-02-24T08:59:52.241Z,33.13
2019-02-24T09:02:21.851Z,28.97
2019-02-24T09:04:51.336Z,32.80
2019-02-24T09:07:20.940Z,23.90
2019-02-24T09:09:50.599Z,22.23
2019-02-24T09:12:20.158Z,26.80
2019-02-24T09:14:49.690Z,29.07
2019-02-24T09:17:19.205Z,27.00
2019-02-24T09:19:48.764Z,57.60
2019-02-24T09:22:18.378Z,44.10
2019-02-24T09:24:47.894Z,33.03
2019-02-24T09:27:17.387Z,40.43
2019-02-24T09:29:47.492Z,28.77
2019-02-24T09:32:17.564Z,22.90
2019-02-24T09:34:47.056Z,31.57
2019-02-24T09:37:16.561Z,31.80
2019-02-24T09:39:46.075Z,25.70
2019-02-24T09:42:15.655Z,34.10
2019-02-24T09:44:45.216Z,27.10
2019-02-24T09:47:14.605Z,29.03
2019-02-24T09:49:44.173Z,27.10
2019-02-24T09:52:14.530Z,21.43
2019-02-24T09:54:44.159Z,34.93
2019-02-24T09:57:13.670Z,20.30
2019-02-24T09:59:43.281Z,19.13
2019-02-24T10:02:12.770Z,17.13
2019-02-24T10:04:42.514Z,22.37
2019-02-24T10:07:12.285Z,18.47
2019-02-24T10:09:41.885Z,15.47
2019-02-24T10:12:11.538Z,15.33
2019-02-24T10:14:41.023Z,18.97
2019-02-24T10:17:10.605Z,12.63
2019-02-24T10:19:40.224Z,16.70
2019-02-24T10:22:09.818Z,16.50
2019-02-24T10:24:39.460Z,16.10
2019-02-24T10:27:10.004Z,13.33
2019-02-24T10:29:39.564Z,10.77
2019-02-24T10:32:09.389Z,13.90
2019-02-24T10:34:39.186Z,22.57
2019-02-24T10:37:08.784Z,13.23
2019-02-24T10:39:38.527Z,11.07
2019-02-24T10:42:07.990Z,12.23
2019-02-24T10:44:37.628Z,22.90
2019-02-24T10:47:07.727Z,12.30
2019-02-24T10:49:37.794Z,11.10
2019-02-24T10:52:07.554Z,13.67
2019-02-24T10:54:37.187Z,10.97
2019-02-24T10:57:09.902Z,17.07
2019-02-24T10:59:38.523Z,27.10
2019-02-24T11:02:08.238Z,12.50
2019-02-24T11:04:37.956Z,11.70
2019-02-24T11:07:08.024Z,13.70
2019-02-24T11:09:38.083Z,12.63
2019-02-24T11:12:08.980Z,9.17
2019-02-24T11:14:38.950Z,5.70
2019-02-24T11:17:08.773Z,9.33
2019-02-24T11:19:38.433Z,8.80
2019-02-24T11:22:08.098Z,5.50
2019-02-24T11:24:37.903Z,7.23
2019-02-24T11:27:09.759Z,6.63
2019-02-24T11:29:39.824Z,14.60
2019-02-24T11:32:09.652Z,6.57
2019-02-24T11:34:39.718Z,8.03
2019-02-24T11:37:09.553Z,5.77
2019-02-24T11:39:39.226Z,6.83
2019-02-24T11:42:08.929Z,5.70
2019-02-24T11:44:38.722Z,5.80
2019-02-24T11:47:08.402Z,6.90
2019-02-24T11:49:38.434Z,8.63
2019-02-24T11:52:08.504Z,7.73
2019-02-24T11:54:38.304Z,5.83
2019-02-24T11:57:08.143Z,5.17
2019-02-24T11:59:37.782Z,8.13
2019-02-24T12:02:07.583Z,7.50
2019-02-24T12:04:37.206Z,5.23
2019-02-24T12:07:07.032Z,13.13
2019-02-24T12:09:37.194Z,6.07
2019-02-24T12:12:06.951Z,5.40
2019-02-24T12:14:36.936Z,9.03
2019-02-24T12:17:06.747Z,11.30
2019-02-24T12:19:36.719Z,6.77
2019-02-24T12:22:06.518Z,12.43
2019-02-24T12:24:36.415Z,5.63
2019-02-24T12:27:06.350Z,5.77
2019-02-24T12:29:36.115Z,5.87
2019-02-24T12:32:06.311Z,7.90
2019-02-24T12:34:36.155Z,5.10
2019-02-24T12:37:06.121Z,5.43
2019-02-24T12:39:35.895Z,6.00
2019-02-24T12:42:05.714Z,7.50
2019-02-24T12:44:35.526Z,6.57
2019-02-24T12:47:05.340Z,4.80
2019-02-24T12:49:35.194Z,11.93
2019-02-24T12:52:05.138Z,4.40
2019-02-24T12:54:34.888Z,4.23
2019-02-24T12:57:04.856Z,9.13
2019-02-24T12:59:34.735Z,7.83
2019-02-24T13:02:05.918Z,4.43
2019-02-24T13:04:36.106Z,7.47
2019-02-24T13:07:05.874Z,3.97
2019-02-24T13:09:35.667Z,4.70
2019-02-24T13:12:05.661Z,6.37
2019-02-24T13:14:35.752Z,4.80
2019-02-24T13:17:05.639Z,8.77
2019-02-24T13:19:35.696Z,4.87
2019-02-24T13:22:05.611Z,4.70
2019-02-24T13:24:35.743Z,6.10
2019-02-24T13:27:05.983Z,9.10
2019-02-24T13:29:35.854Z,7.40
2019-02-24T13:32:14.467Z,10.33
2019-02-24T13:34:37.639Z,6.03
2019-02-24T13:37:07.615Z,5.00
2019-02-24T13:39:38.553Z,5.50
2019-02-24T13:42:08.514Z,4.43
2019-02-24T13:44:38.514Z,4.90
2019-02-24T13:47:08.559Z,4.50
2019-02-24T13:49:40.372Z,5.13
2019-02-24T13:52:11.180Z,4.73
2019-02-24T13:54:41.343Z,5.27
2019-02-24T13:57:11.145Z,4.10
2019-02-24T13:59:41.003Z,4.50
2019-02-24T14:02:10.757Z,5.17
2019-02-24T14:04:40.846Z,4.77
2019-02-24T14:07:10.810Z,4.90
2019-02-24T14:09:40.628Z,7.83
2019-02-24T14:12:12.472Z,6.90
2019-02-24T14:14:48.845Z,5.93
2019-02-24T14:17:13.985Z,4.67
2019-02-24T14:19:43.967Z,5.80
2019-02-24T14:22:13.938Z,16.53
2019-02-24T14:24:44.079Z,6.00
2019-02-24T14:27:14.696Z,5.57
2019-02-24T14:29:44.782Z,5.07
2019-02-24T14:32:15.099Z,5.77
2019-02-24T14:34:45.358Z,5.00
2019-02-24T14:37:15.392Z,5.30
2019-02-24T14:39:45.264Z,4.70
2019-02-24T14:42:15.138Z,5.47
2019-02-24T14:44:45.084Z,4.37
2019-02-24T14:47:15.076Z,3.70
2019-02-24T14:49:45.293Z,5.80
2019-02-24T14:52:15.297Z,8.67
2019-02-24T14:54:45.391Z,7.70
2019-02-24T14:57:15.931Z,4.13
2019-02-24T14:59:45.956Z,5.00
2019-02-24T15:02:16.019Z,6.97
2019-02-24T15:04:46.074Z,4.83
2019-02-24T15:07:16.368Z,5.87
2019-02-24T15:09:46.207Z,5.27
2019-02-24T15:12:16.128Z,5.00
2019-02-24T15:14:46.214Z,5.03
2019-02-24T15:17:16.113Z,5.77
2019-02-24T15:19:45.913Z,4.30
2019-02-24T15:22:16.130Z,5.03
2019-02-24T15:24:46.368Z,5.83
2019-02-24T15:27:16.519Z,5.37
2019-02-24T15:29:47.302Z,6.50
2019-02-24T15:32:17.636Z,5.70
2019-02-24T15:34:47.678Z,4.87
2019-02-24T15:37:17.743Z,5.13
2019-02-24T15:39:47.763Z,8.07
2019-02-24T15:42:17.885Z,12.13
2019-02-24T15:44:47.941Z,4.47
2019-02-24T15:47:18.219Z,5.23
2019-02-24T15:49:48.299Z,5.43
2019-02-24T15:52:18.653Z,4.97
2019-02-24T15:54:49.855Z,6.13
2019-02-24T15:57:19.953Z,4.30
2019-02-24T15:59:49.893Z,8.57
2019-02-24T16:02:20.075Z,5.10
2019-02-24T16:04:50.394Z,5.47
2019-02-24T16:07:20.572Z,5.97
2019-02-24T16:09:50.862Z,4.70
2019-02-24T16:12:20.772Z,5.33
2019-02-24T16:14:50.778Z,6.70
2019-02-24T16:17:20.947Z,6.00
2019-02-24T16:19:50.790Z,7.57
2019-02-24T16:22:20.861Z,5.77
2019-02-24T16:24:50.998Z,5.43
2019-02-24T16:27:21.001Z,5.80
2019-02-24T16:29:51.021Z,4.73
2019-02-24T16:32:21.045Z,4.53
2019-02-24T16:34:50.795Z,6.10
2019-02-24T16:37:20.915Z,4.70
2019-02-24T16:39:51.043Z,4.73
2019-02-24T16:42:21.154Z,4.80
2019-02-24T16:44:51.200Z,4.43
2019-02-24T16:47:21.175Z,12.00
2019-02-24T16:49:51.436Z,5.53
2019-02-24T16:52:21.605Z,7.13
2019-02-24T16:54:52.835Z,4.43
2019-02-24T16:57:23.161Z,5.37
2019-02-24T16:59:53.428Z,13.93
2019-02-24T17:02:23.520Z,8.37
2019-02-24T17:04:53.789Z,5.17
2019-02-24T17:07:23.867Z,4.47
2019-02-24T17:09:53.900Z,4.47
2019-02-24T17:12:26.413Z,6.13
2019-02-24T17:14:56.445Z,4.60
2019-02-24T17:17:26.584Z,4.93
2019-02-24T17:19:56.744Z,4.90
2019-02-24T17:22:26.796Z,5.90
2019-02-24T17:24:56.776Z,5.63
2019-02-24T17:27:26.747Z,5.17
2019-02-24T17:29:57.713Z,6.57
2019-02-24T17:32:27.684Z,4.57
2019-02-24T17:34:58.227Z,5.63
2019-02-24T17:37:28.222Z,4.33
2019-02-24T17:39:58.462Z,6.50
2019-02-24T17:42:28.547Z,9.13
2019-02-24T17:44:58.472Z,6.20
2019-02-24T17:47:30.694Z,5.77
2019-02-24T17:50:01.277Z,5.47
2019-02-24T17:52:31.307Z,4.60
2019-02-24T17:55:01.341Z,6.53
2019-02-24T17:57:31.343Z,8.13
2019-02-24T18:00:01.440Z,5.23
2019-02-24T18:02:32.308Z,7.03
2019-02-24T18:05:02.341Z,7.33
2019-02-24T18:07:32.311Z,7.33
2019-02-24T18:10:02.493Z,5.30
2019-02-24T18:12:32.393Z,5.80
2019-02-24T18:15:02.694Z,5.37
2019-02-24T18:17:32.875Z,5.80
2019-02-24T18:20:02.896Z,5.63
2019-02-24T18:22:33.182Z,10.57
2019-02-24T18:25:03.798Z,5.77
2019-02-24T18:27:33.861Z,5.87
2019-02-24T18:30:04.006Z,5.77
2019-02-24T18:32:33.960Z,6.33
2019-02-24T18:35:04.013Z,6.07
2019-02-24T18:37:34.137Z,4.70
2019-02-24T18:40:04.294Z,5.07
2019-02-24T18:42:34.353Z,6.80
2019-02-24T18:45:04.553Z,12.70
2019-02-24T18:47:34.618Z,6.00
2019-02-24T18:50:04.949Z,11.13
2019-02-24T18:52:37.260Z,11.77
2019-02-24T18:55:07.721Z,14.40
2019-02-24T18:57:38.932Z,16.10
2019-02-24T19:00:11.446Z,6.37
2019-02-24T19:02:41.505Z,17.03
2019-02-24T19:05:11.541Z,9.73
2019-02-24T19:07:42.306Z,11.90
2019-02-24T19:10:13.940Z,11.27
2019-02-24T19:12:45.360Z,8.83
2019-02-24T19:15:16.702Z,7.67
2019-02-24T19:17:46.871Z,9.90
2019-02-24T19:20:18.249Z,12.50
2019-02-24T19:22:48.288Z,21.53
2019-02-24T19:25:18.291Z,7.50
2019-02-24T19:27:48.470Z,12.73
2019-02-24T19:30:18.637Z,13.13
2019-02-24T19:32:48.774Z,6.83
2019-02-24T19:35:18.873Z,14.20
2019-02-24T19:37:51.913Z,9.10
2019-02-24T19:40:22.040Z,9.20
2019-02-24T19:42:52.206Z,11.43
2019-02-24T19:45:22.286Z,14.07
2019-02-24T19:47:52.207Z,17.40
2019-02-24T19:50:23.007Z,14.83
2019-02-24T19:52:53.458Z,18.87
2019-02-24T19:55:23.843Z,15.70
2019-02-24T19:57:53.846Z,17.97
2019-02-24T20:00:24.014Z,26.73
2019-02-24T20:02:54.024Z,20.27
2019-02-24T20:05:24.083Z,13.53
2019-02-24T20:07:54.143Z,25.63
2019-02-24T20:10:24.585Z,19.17
2019-02-24T20:12:55.986Z,22.53
2019-02-24T20:15:26.249Z,23.10
2019-02-24T20:17:56.271Z,17.53
2019-02-24T20:20:26.843Z,18.20
2019-02-24T20:22:56.928Z,13.73
2019-02-24T20:25:26.934Z,38.73
2019-02-24T20:27:57.059Z,24.43
2019-02-24T20:30:27.980Z,24.87
2019-02-24T20:32:58.043Z,15.10
2019-02-24T20:35:30.303Z,11.40
2019-02-24T20:38:00.452Z,27.57
2019-02-24T20:40:30.605Z,9.10
2019-02-24T20:43:00.885Z,12.80
2019-02-24T20:45:30.784Z,8.40
2019-02-24T20:48:00.943Z,13.50
2019-02-24T20:50:31.182Z,7.10
2019-02-24T20:53:01.181Z,9.87
2019-02-24T20:55:32.588Z,12.10
2019-02-24T20:58:02.467Z,6.80
2019-02-24T21:00:35.587Z,7.50
2019-02-24T21:03:05.738Z,12.97
2019-02-24T21:05:35.703Z,8.03
2019-02-24T21:08:07.888Z,8.43
2019-02-24T21:10:37.735Z,7.47
2019-02-24T21:13:07.589Z,7.40
2019-02-24T21:15:37.695Z,15.03
2019-02-24T21:18:07.879Z,7.00
2019-02-24T21:20:38.343Z,8.37
2019-02-24T21:23:08.340Z,12.97
2019-02-24T21:25:38.485Z,7.17
2019-02-24T21:28:10.927Z,8.57
2019-02-24T21:30:40.896Z,12.77
2019-02-24T21:33:10.655Z,12.10
2019-02-24T21:35:40.652Z,7.93
2019-02-24T21:38:10.540Z,7.40
2019-02-24T21:40:40.475Z,8.67
2019-02-24T21:43:10.343Z,16.73
2019-02-24T21:45:41.615Z,7.73
2019-02-24T21:48:11.700Z,17.27
2019-02-24T21:50:41.537Z,10.60
2019-02-24T21:53:11.477Z,9.10
2019-02-24T21:55:41.275Z,8.13
2019-02-24T21:58:11.197Z,8.63
2019-02-24T22:00:40.979Z,16.67
2019-02-24T22:03:10.794Z,8.87
2019-02-24T22:05:40.454Z,14.13
2019-02-24T22:08:10.040Z,10.00
2019-02-24T22:10:39.662Z,10.87
2019-02-24T22:13:09.188Z,10.53
2019-02-24T22:15:38.694Z,20.90
2019-02-24T22:18:08.174Z,11.00
2019-02-24T22:20:37.651Z,11.37
2019-02-24T22:23:07.116Z,8.67
2019-02-24T22:25:36.770Z,15.47
2019-02-24T22:28:06.433Z,10.23
2019-02-24T22:30:36.161Z,9.07
2019-02-24T22:33:05.678Z,12.00
2019-02-24T22:35:35.529Z,14.13
2019-02-24T22:38:05.099Z,8.93
2019-02-24T22:40:34.639Z,15.80
2019-02-24T22:43:04.111Z,20.07
2019-02-24T22:45:33.585Z,7.97
2019-02-24T22:48:03.305Z,17.03
2019-02-24T22:50:32.783Z,10.83
2019-02-24T22:53:02.337Z,9.00
2019-02-24T22:55:31.903Z,15.30
2019-02-24T22:58:01.375Z,14.77
2019-02-24T23:00:57.601Z,9.20
2019-02-24T23:03:29.783Z,11.63
2019-02-24T23:05:59.577Z,13.50
2019-02-24T23:08:29.322Z,8.60
2019-02-24T23:10:58.823Z,14.30
2019-02-24T23:13:28.376Z,10.27
2019-02-24T23:15:57.815Z,9.40
2019-02-24T23:18:27.401Z,12.10
2019-02-24T23:20:56.874Z,11.07
2019-02-24T23:23:26.475Z,10.97
2019-02-24T23:25:56.066Z,17.20
2019-02-24T23:28:25.563Z,11.23
2019-02-24T23:30:55.034Z,16.63
2019-02-24T23:33:24.537Z,21.63
2019-02-24T23:35:54.357Z,15.17
2019-02-24T23:38:23.872Z,19.17
2019-02-24T23:40:53.457Z,13.77
2019-02-24T23:43:22.957Z,15.23
2019-02-24T23:45:52.596Z,14.80
2019-02-24T23:48:22.077Z,15.93
2019-02-24T23:50:51.574Z,46.87
2019-02-24T23:53:21.204Z,13.43
2019-02-24T23:55:50.655Z,20.70
2019-02-24T23:58:20.317Z,12.20
